Time;durP1;ratioP1;P1;durP2;ratioP2;P2;SDS_P1;SDS_P2;PMS_P1;PMS_P2;Temp;Humidity;BMP_temperature;BMP_pressure;BME280_temperature;BME280_humidity;BME280_pressure;Samples;Min_cycle;Max_cycle;Signal;HPM_P1;HPM_P2
2021/12/15 00:01:40;;;;;;;67.20;33.97;;;9.80;99.90;;;;;;5071750;28;20029;-76
2021/12/15 00:04:06;;;;;;;61.45;32.83;;;9.90;99.90;;;;;;5072053;28;20081;-77
2021/12/15 00:06:32;;;;;;;58.33;32.92;;;9.90;99.90;;;;;;5071823;28;20111;-75
2021/12/15 00:08:59;;;;;;;57.88;32.53;;;9.90;99.90;;;;;;5071456;28;20085;-76
2021/12/15 00:11:32;;;;;;;61.20;31.98;;;9.90;99.90;;;;;;5071573;28;20074;-77
2021/12/15 00:13:59;;;;;;;61.08;32.08;;;9.90;99.90;;;;;;5072424;28;20060;-77
2021/12/15 00:16:25;;;;;;;57.42;33.17;;;10.00;99.90;;;;;;5071537;28;20047;-76
2021/12/15 00:18:51;;;;;;;61.42;33.05;;;10.00;99.90;;;;;;5070677;28;20484;-76
2021/12/15 00:21:18;;;;;;;62.80;33.33;;;10.00;99.90;;;;;;5071885;28;20039;-75
2021/12/15 00:23:45;;;;;;;61.67;34.42;;;9.90;99.90;;;;;;5071310;28;20119;-77
2021/12/15 00:26:11;;;;;;;62.00;32.85;;;10.00;99.90;;;;;;5071239;28;20027;-76
2021/12/15 00:28:37;;;;;;;56.63;31.52;;;10.00;99.90;;;;;;5071846;28;20036;-76
2021/12/15 00:31:04;;;;;;;57.50;33.33;;;10.00;99.90;;;;;;5071066;28;20056;-76
2021/12/15 00:33:30;;;;;;;57.38;32.28;;;10.00;99.90;;;;;;5072059;28;20032;-77
2021/12/15 00:35:55;;;;;;;58.95;31.92;;;10.00;99.90;;;;;;5071120;28;20035;-75
2021/12/15 00:38:22;;;;;;;57.58;32.83;;;10.00;99.90;;;;;;5070889;28;20457;-76
2021/12/15 00:40:48;;;;;;;53.60;32.25;;;10.00;99.90;;;;;;5071139;28;20029;-76
2021/12/15 00:43:13;;;;;;;64.43;33.42;;;10.00;99.90;;;;;;5070272;28;20559;-77
2021/12/15 00:45:39;;;;;;;58.50;32.63;;;10.00;99.90;;;;;;5071422;28;20035;-76
2021/12/15 00:48:04;;;;;;;59.88;32.13;;;10.00;99.90;;;;;;5071308;28;20036;-77
2021/12/15 00:50:33;;;;;;;56.15;32.88;;;10.10;99.90;;;;;;5070655;28;20538;-77
2021/12/15 00:53:00;;;;;;;62.67;33.80;;;10.10;99.90;;;;;;5071151;28;20028;-76
2021/12/15 00:55:28;;;;;;;60.72;33.53;;;10.10;99.90;;;;;;5071493;28;20082;-76
2021/12/15 00:57:54;;;;;;;60.20;32.60;;;10.10;99.90;;;;;;5071239;28;20025;-76
2021/12/15 01:00:24;;;;;;;59.20;32.53;;;10.10;99.90;;;;;;5071263;28;20103;-75
2021/12/15 01:02:51;;;;;;;59.92;33.60;;;10.10;99.90;;;;;;5071056;28;20461;-78
2021/12/15 01:05:19;;;;;;;56.60;31.52;;;10.10;99.90;;;;;;5070161;28;20029;-76
2021/12/15 01:07:46;;;;;;;61.80;32.95;;;10.00;99.90;;;;;;5071023;28;20021;-75
2021/12/15 01:10:17;;;;;;;64.38;33.20;;;10.10;99.90;;;;;;5071402;28;20017;-77
2021/12/15 01:14:28;;;;;;;62.97;32.95;;;10.10;99.90;;;;;;5070285;28;20499;-76
2021/12/15 01:20:48;;;;;;;59.67;34.17;;;10.10;99.90;;;;;;5071731;28;20394;-77
2021/12/15 01:23:18;;;;;;;67.47;35.10;;;10.10;99.90;;;;;;5071901;28;20016;-76
2021/12/15 01:25:57;;;;;;;64.05;32.42;;;10.10;99.90;;;;;;5071369;28;20450;-77
2021/12/15 01:28:24;;;;;;;65.75;34.90;;;10.00;99.90;;;;;;5072758;28;20068;-75
2021/12/15 01:30:51;;;;;;;62.42;33.80;;;10.00;99.90;;;;;;5077041;28;20097;-76
2021/12/15 01:33:17;;;;;;;62.78;33.42;;;10.00;99.90;;;;;;5074390;28;20036;-75
2021/12/15 01:35:46;;;;;;;62.50;32.90;;;10.00;99.90;;;;;;5076416;28;20031;-76
2021/12/15 01:38:13;;;;;;;62.80;33.47;;;10.00;99.90;;;;;;5074765;28;20028;-75
2021/12/15 01:40:43;;;;;;;64.65;34.00;;;10.00;99.90;;;;;;5073486;28;20480;-78
2021/12/15 01:49:39;;;;;;;63.17;32.97;;;10.00;99.90;;;;;;5074278;28;20511;-77
2021/12/15 01:52:25;;;;;;;66.07;34.25;;;10.00;99.90;;;;;;5074312;28;20030;-77
2021/12/15 01:54:54;;;;;;;58.20;31.60;;;10.00;99.90;;;;;;5073614;28;20440;-78
2021/12/15 01:57:22;;;;;;;61.88;32.95;;;10.00;99.90;;;;;;5073803;28;20027;-78
2021/12/15 01:59:50;;;;;;;63.75;34.75;;;10.00;99.90;;;;;;5074550;28;20507;-76
2021/12/15 02:02:17;;;;;;;61.30;32.92;;;10.10;99.90;;;;;;5073087;28;20112;-76
2021/12/15 02:04:44;;;;;;;55.63;31.95;;;10.00;99.90;;;;;;5074121;28;20048;-75
2021/12/15 02:07:14;;;;;;;59.53;32.90;;;10.00;99.90;;;;;;5073592;28;20507;-76
2021/12/15 02:12:22;;;;;;;58.25;32.38;;;10.00;99.90;;;;;;5073637;28;20037;-75
2021/12/15 02:14:48;;;;;;;61.67;33.15;;;10.00;99.90;;;;;;5073373;28;20048;-76
2021/12/15 02:17:15;;;;;;;62.30;32.08;;;10.00;99.90;;;;;;5075033;28;20388;-77
2021/12/15 02:19:41;;;;;;;57.63;33.03;;;10.00;99.90;;;;;;5073907;28;20103;-76
2021/12/15 02:22:07;;;;;;;58.60;32.63;;;10.00;99.90;;;;;;5072753;28;20132;-76
2021/12/15 02:24:35;;;;;;;59.83;32.90;;;9.90;99.90;;;;;;5073803;28;20081;-76
2021/12/15 02:27:02;;;;;;;55.65;32.17;;;10.00;99.90;;;;;;5073643;28;20020;-77
2021/12/15 02:29:33;;;;;;;55.67;31.38;;;10.00;99.90;;;;;;5073244;28;20415;-76
2021/12/15 02:32:16;;;;;;;62.15;33.00;;;9.90;99.90;;;;;;5075390;28;20060;-74
2021/12/15 02:37:26;;;;;;;53.88;31.25;;;9.90;99.90;;;;;;5073251;28;20533;-75
2021/12/15 02:40:00;;;;;;;59.88;32.72;;;9.90;99.90;;;;;;5074015;28;20115;-76
2021/12/15 02:42:30;;;;;;;57.53;32.13;;;9.90;99.90;;;;;;5072051;28;20043;-77
2021/12/15 02:44:56;;;;;;;57.45;31.67;;;9.90;99.90;;;;;;5073306;28;20644;-76
2021/12/15 02:47:25;;;;;;;59.05;32.35;;;9.90;99.90;;;;;;5073067;28;20573;-77
2021/12/15 02:49:53;;;;;;;54.92;31.67;;;9.90;99.90;;;;;;5072587;28;20072;-75
2021/12/15 02:52:19;;;;;;;58.47;31.95;;;10.00;99.90;;;;;;5073187;28;20103;-77
2021/12/15 02:54:46;;;;;;;58.40;30.88;;;10.00;99.90;;;;;;5073851;28;20075;-76
2021/12/15 02:57:13;;;;;;;59.95;31.73;;;9.40;99.90;;;;;;5072115;28;20591;-76
2021/12/15 03:07:45;;;;;;;57.67;31.83;;;9.90;99.90;;;;;;5072947;28;20032;-77
2021/12/15 03:15:46;;;;;;;59.10;30.27;;;10.00;99.90;;;;;;5073116;28;20040;-75
2021/12/15 03:18:14;;;;;;;56.60;29.83;;;10.00;99.90;;;;;;5071741;28;20043;-76
2021/12/15 03:20:51;;;;;;;64.45;32.13;;;10.00;99.90;;;;;;5072769;28;20063;-76
2021/12/15 03:23:50;;;;;;;63.85;32.78;;;9.90;99.90;;;;;;5072577;28;20044;-75
2021/12/15 03:26:20;;;;;;;54.70;30.42;;;10.00;99.90;;;;;;5067732;28;20575;-76
2021/12/15 03:39:30;;;;;;;58.20;31.75;;;10.10;99.90;;;;;;5071798;28;20033;-76
2021/12/15 03:42:01;;;;;;;52.85;31.33;;;10.10;99.90;;;;;;5072246;28;20032;-76
2021/12/15 03:44:29;;;;;;;52.88;31.02;;;10.10;99.90;;;;;;5072217;28;20020;-76
2021/12/15 03:46:56;;;;;;;55.80;31.25;;;10.00;99.90;;;;;;5072548;28;20055;-75
2021/12/15 03:49:22;;;;;;;56.83;32.00;;;10.10;99.90;;;;;;5074589;28;20090;-76
2021/12/15 03:51:47;;;;;;;54.58;30.45;;;10.00;99.90;;;;;;5071995;28;20017;-75
2021/12/15 03:54:13;;;;;;;53.47;29.63;;;10.10;99.90;;;;;;5070614;28;20024;-76
2021/12/15 03:56:43;;;;;;;54.05;31.25;;;10.10;99.90;;;;;;5071567;28;20357;-76
2021/12/15 03:59:10;;;;;;;61.05;32.33;;;10.10;99.90;;;;;;5071592;28;20028;-76
2021/12/15 04:01:36;;;;;;;57.05;30.75;;;10.10;99.90;;;;;;5070898;28;20127;-76
2021/12/15 04:04:02;;;;;;;55.20;30.60;;;10.10;99.90;;;;;;5071888;28;20036;-76
2021/12/15 04:06:33;;;;;;;55.70;31.15;;;10.60;99.90;;;;;;5071957;28;20020;-76
2021/12/15 04:08:59;;;;;;;50.15;29.75;;;10.10;99.90;;;;;;5071509;28;20058;-75
2021/12/15 04:11:33;;;;;;;58.92;31.35;;;10.10;99.90;;;;;;5072136;28;20112;-77
2021/12/15 04:14:00;;;;;;;56.20;30.42;;;10.10;99.90;;;;;;5071702;28;20105;-76
2021/12/15 04:19:01;;;;;;;57.58;31.40;;;10.10;99.90;;;;;;5072501;28;20376;-75
2021/12/15 04:21:27;;;;;;;59.78;31.20;;;10.10;99.90;;;;;;5070849;28;20036;-75
2021/12/15 04:23:55;;;;;;;56.97;31.88;;;10.10;99.90;;;;;;5071653;28;20488;-77
2021/12/15 04:26:21;;;;;;;54.35;30.90;;;10.10;99.90;;;;;;5071338;28;20036;-77
2021/12/15 04:28:47;;;;;;;60.25;31.20;;;10.10;99.90;;;;;;5070913;28;20037;-76
2021/12/15 04:31:16;;;;;;;59.58;30.08;;;10.10;99.90;;;;;;5071195;28;20024;-77
2021/12/15 04:33:57;;;;;;;55.97;30.80;;;10.00;99.90;;;;;;5071854;28;20036;-75
2021/12/15 04:36:30;;;;;;;60.67;31.27;;;10.00;99.90;;;;;;5071243;28;20056;-77
2021/12/15 04:38:58;;;;;;;56.85;30.17;;;10.10;99.90;;;;;;5072051;28;20397;-74
2021/12/15 04:41:26;;;;;;;51.60;29.33;;;10.10;99.90;;;;;;5071561;28;20025;-80
2021/12/15 04:44:00;;;;;;;59.42;30.77;;;10.10;99.90;;;;;;5071399;28;20021;-77
2021/12/15 04:46:28;;;;;;;61.08;31.73;;;10.10;99.90;;;;;;5071616;28;20407;-77
2021/12/15 04:48:54;;;;;;;53.20;29.52;;;10.10;99.90;;;;;;5072449;28;20032;-77
2021/12/15 04:51:21;;;;;;;61.70;30.95;;;10.10;99.90;;;;;;5072936;28;20389;-75
2021/12/15 04:53:48;;;;;;;57.40;28.48;;;10.10;99.90;;;;;;5070873;28;20036;-77
2021/12/15 04:56:14;;;;;;;61.22;30.45;;;10.10;99.90;;;;;;5070173;28;20483;-77
2021/12/15 04:58:40;;;;;;;60.55;30.67;;;10.10;99.90;;;;;;5071923;28;20040;-74
2021/12/15 05:01:09;;;;;;;62.15;32.75;;;10.10;99.90;;;;;;5070190;28;20028;-77
2021/12/15 05:03:35;;;;;;;62.58;28.48;;;10.10;99.90;;;;;;5069357;28;20037;-77
2021/12/15 05:06:02;;;;;;;60.22;31.13;;;10.10;99.90;;;;;;5074835;28;20480;-75
2021/12/15 05:08:28;;;;;;;59.53;31.42;;;10.10;99.90;;;;;;5072883;28;20032;-77
2021/12/15 05:10:55;;;;;;;63.90;31.05;;;10.10;99.90;;;;;;5073804;28;20039;-76
2021/12/15 05:13:22;;;;;;;65.72;32.42;;;10.10;99.90;;;;;;5076867;28;20024;-76
2021/12/15 05:15:48;;;;;;;64.85;31.40;;;10.10;99.90;;;;;;5076489;28;20032;-76
2021/12/15 05:18:14;;;;;;;67.72;31.80;;;10.10;99.90;;;;;;5072720;28;20555;-75
2021/12/15 05:20:40;;;;;;;65.57;30.52;;;10.10;99.90;;;;;;5075755;28;20070;-77
2021/12/15 05:23:07;;;;;;;64.88;31.13;;;10.10;99.90;;;;;;5075142;28;20067;-77
2021/12/15 05:25:34;;;;;;;60.95;29.92;;;10.10;99.90;;;;;;5073733;28;20538;-76
2021/12/15 05:28:00;;;;;;;67.20;31.10;;;10.10;99.90;;;;;;5074797;28;20063;-75
2021/12/15 05:30:25;;;;;;;65.35;33.25;;;10.10;99.90;;;;;;5074384;28;20070;-76
2021/12/15 05:32:51;;;;;;;62.28;31.58;;;10.10;99.90;;;;;;5075425;28;20020;-76
2021/12/15 05:35:22;;;;;;;65.88;31.65;;;10.10;99.90;;;;;;5074335;28;20029;-77
2021/12/15 05:37:50;;;;;;;63.10;31.27;;;10.10;99.90;;;;;;5075587;28;20203;-77
2021/12/15 05:40:16;;;;;;;74.45;31.08;;;10.10;99.90;;;;;;5073488;28;20032;-75
2021/12/15 05:42:42;;;;;;;76.53;33.53;;;10.10;99.90;;;;;;5074515;28;20039;-75
2021/12/15 05:45:08;;;;;;;74.60;32.70;;;10.10;99.90;;;;;;5074589;28;20025;-77
2021/12/15 05:47:35;;;;;;;71.72;32.50;;;10.10;99.90;;;;;;5073434;28;20044;-76
2021/12/15 05:50:01;;;;;;;70.40;31.40;;;10.10;99.90;;;;;;5074746;28;20036;-76
2021/12/15 05:52:30;;;;;;;73.80;32.65;;;10.10;99.90;;;;;;5073467;28;20032;-74
2021/12/15 05:54:56;;;;;;;78.30;33.05;;;10.20;99.90;;;;;;5074160;28;20491;-77
2021/12/15 05:57:22;;;;;;;72.78;31.55;;;10.10;99.90;;;;;;5074052;28;20162;-77
2021/12/15 05:59:48;;;;;;;73.15;32.83;;;10.10;99.90;;;;;;5073634;28;20108;-77
2021/12/15 06:02:13;;;;;;;83.43;33.13;;;10.10;99.90;;;;;;5074814;28;20028;-77
2021/12/15 06:04:39;;;;;;;71.00;30.45;;;10.10;99.90;;;;;;5076267;28;20087;-76
2021/12/15 06:07:07;;;;;;;73.72;32.83;;;10.20;99.90;;;;;;5077612;28;20021;-75
2021/12/15 06:09:33;;;;;;;74.07;32.33;;;10.20;99.90;;;;;;5074434;28;20040;-77
2021/12/15 06:11:59;;;;;;;77.43;32.45;;;10.20;99.90;;;;;;5074315;28;20020;-75
2021/12/15 06:14:27;;;;;;;80.15;33.20;;;10.20;99.90;;;;;;5073178;28;20056;-76
2021/12/15 06:16:59;;;;;;;85.20;33.70;;;10.20;99.90;;;;;;5074713;28;20101;-77
2021/12/15 06:19:24;;;;;;;79.32;31.65;;;10.20;99.90;;;;;;5073996;28;20050;-76
2021/12/15 06:21:50;;;;;;;82.85;32.55;;;10.10;99.90;;;;;;5073757;28;20021;-74
2021/12/15 06:24:16;;;;;;;79.30;33.25;;;10.10;99.90;;;;;;5074239;28;20036;-75
2021/12/15 06:26:42;;;;;;;78.72;32.88;;;10.10;99.90;;;;;;5074382;28;20050;-77
2021/12/15 06:29:07;;;;;;;76.82;32.30;;;10.50;99.90;;;;;;5073513;28;20036;-77
2021/12/15 06:31:38;;;;;;;78.80;32.92;;;10.20;99.90;;;;;;5073832;28;20479;-76
2021/12/15 06:34:04;;;;;;;78.22;31.88;;;10.10;99.90;;;;;;5073713;28;20033;-76
2021/12/15 06:36:30;;;;;;;79.35;32.38;;;10.10;99.90;;;;;;5073325;28;20028;-76
2021/12/15 06:38:57;;;;;;;70.68;31.83;;;10.10;99.90;;;;;;5073929;28;20036;-76
2021/12/15 06:41:23;;;;;;;77.15;32.08;;;10.10;99.90;;;;;;5074087;28;20549;-77
2021/12/15 06:43:55;;;;;;;72.95;31.35;;;10.10;99.90;;;;;;5080034;28;20032;-76
2021/12/15 06:59:56;;;;;;;75.88;33.28;;;10.10;99.90;;;;;;5074354;28;20047;-76
2021/12/15 07:02:22;;;;;;;70.72;31.58;;;10.10;99.90;;;;;;5073730;28;20447;-76
2021/12/15 07:04:47;;;;;;;60.28;29.67;;;10.20;99.90;;;;;;5073351;28;20024;-77
2021/12/15 07:07:13;;;;;;;76.80;31.48;;;10.20;99.90;;;;;;5073318;28;20024;-77
2021/12/15 07:09:40;;;;;;;71.18;31.40;;;10.10;99.90;;;;;;5073380;28;20116;-76
2021/12/15 07:12:06;;;;;;;79.03;32.75;;;10.10;99.90;;;;;;5073513;28;20029;-78
2021/12/15 07:14:32;;;;;;;67.65;31.17;;;10.10;99.90;;;;;;5073870;28;20035;-75
2021/12/15 07:17:08;;;;;;;67.40;31.38;;;10.10;99.90;;;;;;5072905;28;20448;-77
2021/12/15 07:19:51;;;;;;;67.22;31.10;;;10.20;99.90;;;;;;5074341;28;20056;-76
2021/12/15 07:22:30;;;;;;;73.18;31.77;;;10.20;99.90;;;;;;5073403;28;20029;-78
2021/12/15 07:24:56;;;;;;;74.13;32.75;;;10.20;99.90;;;;;;5073132;28;20032;-77
2021/12/15 07:27:22;;;;;;;76.95;32.50;;;10.20;99.90;;;;;;5073802;28;20032;-76
2021/12/15 07:29:48;;;;;;;70.85;32.20;;;10.20;99.90;;;;;;5074320;28;20040;-79
2021/12/15 07:32:17;;;;;;;75.07;32.08;;;10.30;99.90;;;;;;5074418;28;20063;-77
2021/12/15 07:34:43;;;;;;;71.75;32.90;;;10.20;99.90;;;;;;5079589;28;20029;-75
2021/12/15 07:37:08;;;;;;;73.82;31.05;;;10.30;99.90;;;;;;5072807;28;20069;-78
2021/12/15 07:39:36;;;;;;;73.85;31.63;;;10.30;99.90;;;;;;5086334;28;20035;-76
2021/12/15 07:42:06;;;;;;;69.97;32.08;;;10.30;99.90;;;;;;5093829;28;20028;-78
2021/12/15 07:44:32;;;;;;;72.43;32.63;;;10.30;99.90;;;;;;5093765;28;20024;-79
2021/12/15 07:46:58;;;;;;;75.30;31.63;;;10.30;99.90;;;;;;5073204;28;20047;-80
2021/12/15 07:49:25;;;;;;;77.88;32.78;;;10.30;99.90;;;;;;5072956;28;20039;-79
2021/12/15 07:52:10;;;;;;;75.30;32.85;;;10.20;99.90;;;;;;5072200;28;20389;-78
2021/12/15 07:54:36;;;;;;;73.45;31.58;;;10.30;99.90;;;;;;5073702;28;20056;-77
2021/12/15 07:57:07;;;;;;;74.68;31.58;;;10.20;99.90;;;;;;5081188;28;20046;-78
2021/12/15 07:59:33;;;;;;;72.20;31.90;;;10.30;99.90;;;;;;5072730;28;20059;-78
2021/12/15 08:01:58;;;;;;;72.70;33.50;;;10.30;99.90;;;;;;5073079;28;20419;-80
2021/12/15 08:04:24;;;;;;;79.72;33.78;;;10.30;99.90;;;;;;5081818;28;20103;-78
2021/12/15 08:06:50;;;;;;;70.20;30.92;;;10.30;99.90;;;;;;5092612;28;20450;-79
2021/12/15 08:09:16;;;;;;;73.80;31.45;;;10.30;99.90;;;;;;5094866;28;20466;-78
2021/12/15 08:11:42;;;;;;;78.78;34.58;;;10.40;99.90;;;;;;5093115;28;20027;-80
2021/12/15 08:14:08;;;;;;;79.47;32.83;;;10.30;99.90;;;;;;5093037;28;20380;-78
2021/12/15 08:16:34;;;;;;;80.40;31.95;;;10.30;99.90;;;;;;5093239;28;20020;-78
2021/12/15 08:19:01;;;;;;;72.85;32.58;;;10.30;99.90;;;;;;5092878;28;20173;-78
2021/12/15 08:21:28;;;;;;;76.47;31.48;;;10.40;99.90;;;;;;5093192;28;20391;-80
2021/12/15 08:23:54;;;;;;;74.78;32.13;;;10.40;99.90;;;;;;5096682;28;20051;-79
2021/12/15 08:26:20;;;;;;;71.63;30.70;;;10.40;99.90;;;;;;5093777;28;20056;-78
2021/12/15 08:28:45;;;;;;;72.00;31.52;;;10.40;99.90;;;;;;5091838;28;20071;-78
2021/12/15 08:31:11;;;;;;;66.60;30.23;;;10.40;99.90;;;;;;5091512;28;20102;-79
2021/12/15 08:33:37;;;;;;;69.20;30.73;;;10.40;99.90;;;;;;5083849;28;20025;-80
2021/12/15 08:36:09;;;;;;;68.63;31.20;;;10.40;99.90;;;;;;5074692;28;20021;-78
2021/12/15 08:38:40;;;;;;;69.15;30.90;;;10.40;99.90;;;;;;5087011;28;20032;-73
2021/12/15 08:41:10;;;;;;;72.00;30.98;;;10.50;99.90;;;;;;5085233;28;20032;-82
2021/12/15 08:43:36;;;;;;;67.73;30.17;;;10.50;99.90;;;;;;5081237;28;20060;-77
2021/12/15 08:46:10;;;;;;;72.65;32.78;;;10.40;99.90;;;;;;5097576;28;20490;-75
2021/12/15 08:48:37;;;;;;;62.35;29.52;;;10.40;99.90;;;;;;5078164;28;20048;-77
2021/12/15 08:51:05;;;;;;;60.67;28.88;;;10.50;99.90;;;;;;5095066;28;20039;-76
2021/12/15 08:53:31;;;;;;;64.38;30.50;;;10.50;99.90;;;;;;5096001;28;20048;-76
2021/12/15 08:55:56;;;;;;;57.15;26.77;;;10.50;99.90;;;;;;5095803;28;20427;-75
2021/12/15 08:58:23;;;;;;;64.57;30.40;;;10.50;99.90;;;;;;5083398;28;20338;-73
2021/12/15 09:00:51;;;;;;;58.42;28.95;;;10.60;99.90;;;;;;5076773;28;20028;-72
2021/12/15 09:03:18;;;;;;;53.60;27.13;;;10.60;99.90;;;;;;5094048;28;20020;-76
2021/12/15 09:05:44;;;;;;;61.28;28.00;;;10.50;99.90;;;;;;5096879;28;20028;-73
2021/12/15 09:08:11;;;;;;;58.60;27.10;;;10.60;99.90;;;;;;5094578;28;20024;-73
2021/12/15 09:10:40;;;;;;;55.80;26.83;;;10.60;99.90;;;;;;5095457;28;20533;-73
2021/12/15 09:13:07;;;;;;;56.47;26.83;;;10.60;99.90;;;;;;5095041;28;20024;-76
2021/12/15 09:15:35;;;;;;;60.63;26.70;;;10.70;99.90;;;;;;5098354;28;20040;-74
2021/12/15 09:18:01;;;;;;;52.33;25.63;;;10.70;99.90;;;;;;5093268;28;20016;-73
2021/12/15 09:20:28;;;;;;;50.80;25.73;;;10.70;99.90;;;;;;5091726;28;20024;-75
2021/12/15 09:22:55;;;;;;;55.75;28.65;;;10.70;99.90;;;;;;5093407;28;20419;-75
2021/12/15 09:25:21;;;;;;;59.55;31.33;;;10.80;99.90;;;;;;5094217;28;20021;-75
2021/12/15 09:27:47;;;;;;;55.30;29.27;;;10.70;99.90;;;;;;5097170;28;20077;-74
2021/12/15 09:30:19;;;;;;;52.70;27.98;;;10.80;99.90;;;;;;5095508;28;20039;-76
2021/12/15 09:32:47;;;;;;;51.17;27.00;;;10.80;99.90;;;;;;5093324;28;20051;-75
2021/12/15 09:35:15;;;;;;;52.83;27.88;;;10.80;99.90;;;;;;5095346;28;20017;-75
2021/12/15 09:37:43;;;;;;;60.30;27.25;;;10.80;99.90;;;;;;5094024;28;20024;-77
2021/12/15 09:40:12;;;;;;;52.50;25.77;;;10.80;99.90;;;;;;5081309;28;20123;-76
2021/12/15 09:42:39;;;;;;;43.05;25.42;;;10.80;99.90;;;;;;5092179;28;20027;-75
2021/12/15 09:45:46;;;;;;;47.95;25.70;;;10.80;99.90;;;;;;5094142;28;20097;-75
2021/12/15 09:56:37;;;;;;;47.90;26.35;;;10.80;99.90;;;;;;5096213;28;20201;-76
2021/12/15 09:57:05;;;;;;;41.40;22.95;;;10.90;99.90;;;;;;5095808;28;20081;-76
2021/12/15 10:02:32;;;;;;;40.83;22.92;;;10.90;99.90;;;;;;5089379;28;20104;-75
2021/12/15 10:05:12;;;;;;;37.00;22.40;;;10.90;99.90;;;;;;5081741;28;20032;-75
2021/12/15 10:10:44;;;;;;;42.95;22.60;;;10.90;99.90;;;;;;5074733;28;20334;-75
2021/12/15 10:19:08;;;;;;;43.70;23.85;;;10.90;99.90;;;;;;5083947;28;20089;-74
2021/12/15 10:21:34;;;;;;;43.95;23.02;;;10.90;99.90;;;;;;5092388;28;20422;-74
2021/12/15 10:24:00;;;;;;;42.78;23.75;;;10.90;99.90;;;;;;5092923;28;20028;-74
2021/12/15 10:26:26;;;;;;;45.47;23.85;;;11.00;99.90;;;;;;5093608;28;20081;-74
2021/12/15 10:28:54;;;;;;;41.33;23.83;;;11.00;99.90;;;;;;5094069;28;20025;-75
2021/12/15 10:31:27;;;;;;;41.53;21.40;;;11.00;99.90;;;;;;5093878;28;20020;-74
2021/12/15 10:33:59;;;;;;;36.67;22.13;;;11.00;99.90;;;;;;5092371;28;20028;-74
2021/12/15 10:36:29;;;;;;;40.10;22.77;;;11.00;99.90;;;;;;5094459;28;20024;-74
2021/12/15 10:38:57;;;;;;;37.20;21.90;;;11.00;99.90;;;;;;5093830;28;20020;-74
2021/12/15 10:41:34;;;;;;;44.10;23.02;;;11.00;99.90;;;;;;5094146;28;20097;-74
2021/12/15 10:44:05;;;;;;;40.88;21.90;;;11.00;99.90;;;;;;5096220;28;20081;-74
2021/12/15 10:46:38;;;;;;;33.22;19.83;;;11.00;99.90;;;;;;5095991;28;20575;-74
2021/12/15 10:49:19;;;;;;;32.55;19.42;;;11.00;99.90;;;;;;5072769;28;20032;-74
2021/12/15 10:51:53;;;;;;;34.28;19.92;;;11.10;99.90;;;;;;5074636;28;20107;-74
2021/12/15 10:54:56;;;;;;;32.75;18.50;;;11.00;99.90;;;;;;5073742;28;20480;-74
2021/12/15 10:57:32;;;;;;;35.53;18.80;;;11.10;99.90;;;;;;5071063;28;20106;-75
2021/12/15 10:59:59;;;;;;;35.75;18.83;;;11.10;99.90;;;;;;5074586;28;20047;-74
2021/12/15 11:02:32;;;;;;;32.00;18.80;;;11.20;99.90;;;;;;5082589;28;20077;-74
2021/12/15 11:05:02;;;;;;;30.10;18.30;;;11.20;99.90;;;;;;5083264;28;20384;-75
2021/12/15 11:07:34;;;;;;;34.80;19.13;;;11.10;99.90;;;;;;5086128;28;20019;-74
2021/12/15 11:10:25;;;;;;;32.13;18.75;;;11.20;99.90;;;;;;5092926;28;20043;-74
2021/12/15 11:13:01;;;;;;;29.05;17.98;;;11.20;99.90;;;;;;5080828;28;20544;-74
2021/12/15 11:15:49;;;;;;;26.73;18.80;;;11.20;99.90;;;;;;5086948;28;20046;-73
2021/12/15 11:18:21;;;;;;;34.38;17.92;;;11.20;99.90;;;;;;5080668;28;20016;-74
2021/12/15 11:20:55;;;;;;;39.28;17.55;;;11.20;99.90;;;;;;5089519;28;20056;-74
2021/12/15 11:23:23;;;;;;;29.95;17.00;;;11.20;99.90;;;;;;5082987;28;20035;-73
2021/12/15 11:25:56;;;;;;;27.25;17.13;;;11.20;99.90;;;;;;5086396;28;20031;-74
2021/12/15 11:28:29;;;;;;;32.20;17.70;;;11.20;99.90;;;;;;5084830;28;20111;-74
2021/12/15 11:31:06;;;;;;;35.85;19.10;;;11.20;99.90;;;;;;5089895;28;20032;-74
2021/12/15 11:33:38;;;;;;;31.77;17.35;;;11.20;99.90;;;;;;5090643;28;20076;-74
2021/12/15 11:36:06;;;;;;;29.88;17.08;;;11.20;99.90;;;;;;5089672;28;20477;-74
2021/12/15 11:38:35;;;;;;;29.30;17.42;;;11.30;99.90;;;;;;5087132;28;20472;-73
2021/12/15 11:41:26;;;;;;;33.28;19.10;;;11.20;99.90;;;;;;5085215;28;20020;-73
2021/12/15 11:43:53;;;;;;;;;;;11.30;99.90;;;;;;5082318;28;20119;-75
2021/12/15 11:46:36;;;;;;;33.95;20.73;;;11.30;99.90;;;;;;5081792;28;19943;-75
2021/12/15 11:49:13;;;;;;;38.30;23.63;;;11.40;99.90;;;;;;5082723;28;20028;-77
2021/12/15 11:51:44;;;;;;;32.08;20.50;;;11.40;99.90;;;;;;5084387;28;20518;-74
2021/12/15 11:54:27;;;;;;;35.17;22.13;;;11.40;99.90;;;;;;5084944;28;20031;-75
2021/12/15 11:57:18;;;;;;;34.65;19.92;;;11.40;99.90;;;;;;5093942;28;20060;-74
2021/12/15 11:59:49;;;;;;;28.30;19.63;;;11.40;99.90;;;;;;5086834;28;20024;-74
2021/12/15 12:02:28;;;;;;;26.92;17.95;;;11.40;99.90;;;;;;5083092;28;20047;-75
2021/12/15 12:05:12;;;;;;;86.93;40.67;;;11.40;99.90;;;;;;5083753;28;20032;-74
2021/12/15 12:07:49;;;;;;;35.58;22.08;;;11.40;99.90;;;;;;5087936;28;20017;-74
2021/12/15 12:10:28;;;;;;;41.95;23.90;;;11.40;99.90;;;;;;5083104;28;20024;-74
2021/12/15 12:13:10;;;;;;;48.40;26.02;;;11.40;99.90;;;;;;5085555;28;20050;-74
2021/12/15 12:15:38;;;;;;;37.20;21.77;;;11.30;99.90;;;;;;5084705;28;20111;-74
2021/12/15 12:18:07;;;;;;;63.22;29.77;;;11.30;99.90;;;;;;5089403;28;20031;-74
2021/12/15 12:20:38;;;;;;;27.25;18.52;;;11.30;99.90;;;;;;5083970;28;20032;-75
2021/12/15 12:23:14;;;;;;;30.98;16.70;;;11.40;99.90;;;;;;5084125;28;20023;-75
2021/12/15 12:25:45;;;;;;;25.25;15.80;;;11.40;99.90;;;;;;5080429;28;20070;-74
2021/12/15 12:28:14;;;;;;;29.95;15.90;;;11.30;99.90;;;;;;5092912;28;20016;-75
2021/12/15 12:30:46;;;;;;;21.08;15.55;;;11.30;99.90;;;;;;5084998;28;20025;-75
2021/12/15 12:33:15;;;;;;;34.72;18.33;;;11.30;99.90;;;;;;5084803;28;20055;-75
2021/12/15 12:36:06;;;;;;;27.88;16.70;;;11.30;99.90;;;;;;5093994;28;20463;-74
2021/12/15 12:38:35;;;;;;;22.55;16.38;;;11.20;99.90;;;;;;5102856;28;20093;-76
2021/12/15 12:41:06;;;;;;;28.15;17.63;;;11.30;99.90;;;;;;5092566;28;20460;-74
2021/12/15 12:43:36;;;;;;;27.35;18.20;;;11.20;99.90;;;;;;5078277;28;20036;-74
2021/12/15 12:46:06;;;;;;;;;;;11.30;99.90;;;;;;5075451;28;20032;-74
2021/12/15 12:49:03;;;;;;;26.13;17.38;;;11.30;99.90;;;;;;5077588;28;20038;-76
2021/12/15 13:00:30;;;;;;;25.23;16.67;;;11.40;99.90;;;;;;5097071;28;20031;-75
2021/12/15 13:03:01;;;;;;;28.13;17.17;;;11.30;99.90;;;;;;5104857;28;20304;-75
2021/12/15 13:05:43;;;;;;;25.52;17.67;;;11.40;99.90;;;;;;5097053;28;20028;-74
2021/12/15 13:08:29;;;;;;;22.02;15.40;;;11.40;99.90;;;;;;5098449;28;20046;-74
2021/12/15 13:11:16;;;;;;;27.50;16.10;;;11.30;99.90;;;;;;5105120;28;20475;-74
2021/12/15 13:14:02;;;;;;;26.73;16.58;;;11.30;99.90;;;;;;5105304;28;20031;-74
2021/12/15 13:16:31;;;;;;;27.48;16.55;;;11.30;99.90;;;;;;5094981;28;20044;-74
2021/12/15 13:19:18;;;;;;;26.55;16.13;;;11.30;99.90;;;;;;5099283;28;20023;-74
2021/12/15 13:30:31;;;;;;;23.95;16.10;;;11.30;99.90;;;;;;5098417;28;20494;-74
2021/12/15 13:33:05;;;;;;;24.55;16.10;;;11.30;99.90;;;;;;5110886;28;20031;-74
2021/12/15 13:35:55;;;;;;;32.13;16.55;;;11.20;99.90;;;;;;5096624;27;20032;-75
2021/12/15 13:38:30;;;;;;;29.60;17.70;;;11.30;99.90;;;;;;5095747;28;20021;-75
2021/12/15 13:41:23;;;;;;;28.55;16.35;;;11.30;99.90;;;;;;5093222;28;20036;-72
2021/12/15 13:43:56;;;;;;;30.40;17.60;;;11.20;99.90;;;;;;5109656;28;20036;-75
2021/12/15 13:46:33;;;;;;;30.70;17.67;;;11.20;99.90;;;;;;5106132;28;20039;-75
2021/12/15 13:49:10;;;;;;;36.42;18.00;;;11.30;99.90;;;;;;5101607;28;20093;-74
2021/12/15 13:52:30;;;;;;;28.67;18.05;;;11.20;99.90;;;;;;5101140;28;20888;-75
2021/12/15 13:54:57;;;;;;;41.42;21.58;;;11.20;99.90;;;;;;5046258;28;20529;-75
2021/12/15 13:57:26;;;;;;;31.35;19.45;;;11.20;99.90;;;;;;5087378;28;20127;-75
2021/12/15 14:00:14;;;;;;;29.15;16.40;;;11.10;99.90;;;;;;5093337;28;20020;-75
2021/12/15 14:02:53;;;;;;;28.70;17.63;;;11.10;99.90;;;;;;5093455;28;20104;-74
2021/12/15 14:05:27;;;;;;;32.63;18.48;;;11.10;99.90;;;;;;5112794;28;20020;-75
2021/12/15 14:08:00;;;;;;;33.83;17.98;;;11.10;99.90;;;;;;5105370;28;20105;-74
2021/12/15 14:10:28;;;;;;;32.03;18.90;;;11.10;99.90;;;;;;5098263;28;20118;-74
2021/12/15 14:12:58;;;;;;;33.20;17.65;;;11.10;99.90;;;;;;5095624;28;20603;-74
2021/12/15 14:15:40;;;;;;;32.85;17.75;;;11.10;99.90;;;;;;5100812;28;20035;-75
2021/12/15 14:18:10;;;;;;;25.30;17.63;;;11.10;99.90;;;;;;5093928;28;20434;-76